Time;durP1;ratioP1;P1;durP2;ratioP2;P2;SDS_P1;SDS_P2;PMS_P1;PMS_P2;Temp;Humidity;BMP_temperature;BMP_pressure;BME280_temperature;BME280_humidity;BME280_pressure;Samples;Min_cycle;Max_cycle;Signal;HPM_P1;HPM_P2
2024/01/17 00:00:42;;;;;;;47.20;12.85;;;;;;;;;;5104363;28;20115;-59
2024/01/17 00:03:09;;;;;;;41.42;12.38;;;;;;;;;;5105191;28;20034;-62
2024/01/17 00:05:35;;;;;;;48.47;11.50;;;;;;;;;;5105603;28;20020;-58
2024/01/17 00:08:09;;;;;;;33.10;10.35;;;;;;;;;;5104818;28;20016;-61
2024/01/17 00:10:36;;;;;;;29.75;9.18;;;;;;;;;;5105154;28;20191;-59
2024/01/17 00:13:03;;;;;;;51.17;11.02;;;;;;;;;;5102835;28;20181;-62
2024/01/17 00:15:30;;;;;;;35.75;9.18;;;;;;;;;;5104918;28;20312;-57
2024/01/17 00:17:57;;;;;;;43.47;9.45;;;;;;;;;;5104592;28;20399;-58
2024/01/17 00:20:23;;;;;;;25.63;8.63;;;;;;;;;;5104580;28;20211;-59
2024/01/17 00:22:50;;;;;;;30.10;8.18;;;;;;;;;;5103554;28;20346;-60
2024/01/17 00:25:17;;;;;;;24.92;7.63;;;;;;;;;;5104556;28;20083;-61
2024/01/17 00:27:43;;;;;;;25.33;8.52;;;;;;;;;;5104194;28;20027;-58
2024/01/17 00:30:11;;;;;;;34.30;8.82;;;;;;;;;;5104399;28;20022;-60
2024/01/17 00:32:38;;;;;;;19.60;7.32;;;;;;;;;;5104496;28;20028;-60
2024/01/17 00:35:05;;;;;;;22.90;7.80;;;;;;;;;;5104146;28;20030;-60
2024/01/17 00:37:34;;;;;;;27.55;7.93;;;;;;;;;;5104164;28;20024;-59
2024/01/17 00:40:00;;;;;;;21.90;7.15;;;;;;;;;;5104437;28;20031;-59
2024/01/17 00:42:27;;;;;;;36.60;8.38;;;;;;;;;;5104091;28;20035;-59
2024/01/17 00:44:54;;;;;;;23.10;7.50;;;;;;;;;;5104335;28;20031;-61
2024/01/17 00:47:21;;;;;;;24.63;7.90;;;;;;;;;;5104191;28;20020;-61
2024/01/17 00:49:47;;;;;;;23.50;7.60;;;;;;;;;;5104114;28;20080;-60
2024/01/17 00:52:14;;;;;;;16.98;7.50;;;;;;;;;;5103826;28;20219;-61
2024/01/17 00:54:41;;;;;;;22.20;7.10;;;;;;;;;;5104551;28;20015;-59
2024/01/17 00:57:07;;;;;;;15.65;6.97;;;;;;;;;;5103841;28;20031;-59
2024/01/17 00:59:34;;;;;;;22.02;7.05;;;;;;;;;;5104007;28;20024;-60
2024/01/17 01:02:02;;;;;;;20.83;6.70;;;;;;;;;;5103945;28;20028;-60
2024/01/17 01:04:29;;;;;;;24.15;7.68;;;;;;;;;;5103740;28;20058;-61
2024/01/17 01:06:55;;;;;;;18.05;7.03;;;;;;;;;;5104082;28;20040;-59
2024/01/17 01:09:22;;;;;;;15.63;6.35;;;;;;;;;;5104141;28;20327;-60
2024/01/17 01:11:48;;;;;;;18.85;7.30;;;;;;;;;;5103746;28;20023;-58
2024/01/17 01:14:15;;;;;;;14.75;7.40;;;;;;;;;;5103923;28;20075;-58
2024/01/17 01:16:43;;;;;;;17.08;7.07;;;;;;;;;;5104100;28;20023;-57
2024/01/17 01:19:10;;;;;;;17.65;6.80;;;;;;;;;;5103863;28;20027;-57
2024/01/17 01:21:36;;;;;;;16.45;7.00;;;;;;;;;;5103901;28;20046;-58
2024/01/17 01:24:03;;;;;;;15.32;8.20;;;;;;;;;;5103669;28;20331;-59
2024/01/17 01:26:30;;;;;;;27.77;8.05;;;;;;;;;;5104457;28;20024;-59
2024/01/17 01:28:56;;;;;;;20.35;7.60;;;;;;;;;;5104077;28;20035;-60
2024/01/17 01:31:23;;;;;;;26.95;8.60;;;;;;;;;;5104245;28;20024;-59
2024/01/17 01:33:50;;;;;;;20.90;8.88;;;;;;;;;;5103857;28;20026;-57
2024/01/17 01:36:16;;;;;;;18.23;8.63;;;;;;;;;;5107784;28;20027;-54
2024/01/17 01:38:43;;;;;;;23.35;9.13;;;;;;;;;;5104825;28;20039;-59
2024/01/17 01:41:09;;;;;;;67.10;10.90;;;;;;;;;;5105319;28;20323;-63
2024/01/17 01:43:36;;;;;;;19.42;9.23;;;;;;;;;;5107033;28;20031;-63
2024/01/17 01:46:14;;;;;;;13.52;8.30;;;;;;;;;;5107478;28;20045;-60
2024/01/17 01:48:41;;;;;;;16.90;8.50;;;;;;;;;;5106212;28;20427;-57
2024/01/17 01:51:08;;;;;;;23.67;8.75;;;;;;;;;;5098922;28;20024;-56
2024/01/17 01:53:35;;;;;;;21.48;10.38;;;;;;;;;;5086659;28;20031;-59
2024/01/17 01:56:02;;;;;;;38.03;11.63;;;;;;;;;;5086883;28;20021;-56
2024/01/17 01:58:29;;;;;;;24.92;10.65;;;;;;;;;;5086594;28;20040;-58
2024/01/17 02:00:57;;;;;;;21.35;10.23;;;;;;;;;;5086437;28;20059;-58
2024/01/17 02:03:24;;;;;;;19.92;9.07;;;;;;;;;;5086328;28;20220;-60
2024/01/17 02:05:51;;;;;;;29.20;9.38;;;;;;;;;;5086758;28;20200;-59
2024/01/17 02:08:18;;;;;;;22.90;9.63;;;;;;;;;;5086370;28;20031;-56
2024/01/17 02:10:45;;;;;;;22.88;10.50;;;;;;;;;;5086928;28;20193;-58
2024/01/17 02:13:12;;;;;;;23.45;10.02;;;;;;;;;;5086647;28;20029;-61
2024/01/17 02:15:38;;;;;;;26.15;10.50;;;;;;;;;;5097891;28;20073;-56
2024/01/17 02:18:05;;;;;;;20.95;10.63;;;;;;;;;;5089638;28;20031;-58
2024/01/17 02:20:32;;;;;;;19.98;9.98;;;;;;;;;;5091105;28;20242;-56
2024/01/17 02:22:59;;;;;;;20.63;11.20;;;;;;;;;;5105842;28;20308;-59
2024/01/17 02:25:25;;;;;;;31.27;11.35;;;;;;;;;;5104433;28;20016;-58
2024/01/17 02:27:52;;;;;;;18.83;10.40;;;;;;;;;;5106637;28;20350;-59
2024/01/17 02:30:18;;;;;;;17.95;10.82;;;;;;;;;;5105310;28;20311;-58
2024/01/17 02:32:45;;;;;;;23.65;9.82;;;;;;;;;;5097693;28;20346;-56
2024/01/17 02:35:12;;;;;;;38.85;11.85;;;;;;;;;;5104524;28;20024;-60
2024/01/17 02:37:39;;;;;;;25.10;9.75;;;;;;;;;;5106501;28;20051;-58
2024/01/17 02:40:05;;;;;;;28.15;9.00;;;;;;;;;;5105912;28;20260;-57
2024/01/17 02:42:32;;;;;;;31.92;9.63;;;;;;;;;;5101920;28;20027;-63
2024/01/17 02:44:58;;;;;;;20.83;10.15;;;;;;;;;;5098252;28;20043;-57
2024/01/17 02:47:25;;;;;;;24.10;11.70;;;;;;;;;;5102051;28;20016;-58
2024/01/17 02:49:51;;;;;;;26.55;11.68;;;;;;;;;;5104981;28;20088;-58
2024/01/17 02:52:18;;;;;;;21.75;9.68;;;;;;;;;;5104908;28;20068;-60
2024/01/17 02:54:45;;;;;;;24.15;9.13;;;;;;;;;;5104895;28;20062;-59
2024/01/17 02:57:11;;;;;;;15.23;7.68;;;;;;;;;;5105435;28;20028;-61
2024/01/17 02:59:38;;;;;;;15.68;7.65;;;;;;;;;;5097755;28;20025;-60
2024/01/17 03:02:07;;;;;;;17.13;7.82;;;;;;;;;;5101105;28;20043;-58
2024/01/17 03:04:34;;;;;;;16.20;7.35;;;;;;;;;;5105216;28;20204;-61
2024/01/17 03:07:00;;;;;;;11.23;6.90;;;;;;;;;;5105500;28;20111;-59
2024/01/17 03:09:27;;;;;;;14.05;6.43;;;;;;;;;;5104974;28;20028;-62
2024/01/17 03:11:53;;;;;;;24.75;6.97;;;;;;;;;;5102426;28;20098;-65
2024/01/17 03:14:20;;;;;;;15.00;6.68;;;;;;;;;;5105024;28;20038;-59
2024/01/17 03:16:47;;;;;;;15.95;6.45;;;;;;;;;;5104991;28;20221;-59
2024/01/17 03:19:16;;;;;;;13.45;6.25;;;;;;;;;;5103888;28;20016;-58
2024/01/17 03:21:49;;;;;;;11.63;5.40;;;;;;;;;;5103186;28;20023;-56
2024/01/17 03:24:15;;;;;;;16.40;6.00;;;;;;;;;;5103726;28;20022;-58
2024/01/17 03:26:42;;;;;;;11.82;5.97;;;;;;;;;;5101398;28;20371;-59
2024/01/17 03:29:09;;;;;;;9.85;5.40;;;;;;;;;;5104699;28;20212;-56
2024/01/17 03:31:35;;;;;;;12.25;5.50;;;;;;;;;;5097875;28;20258;-61
2024/01/17 03:34:02;;;;;;;14.43;5.75;;;;;;;;;;5086756;28;20012;-59
2024/01/17 03:36:28;;;;;;;11.07;6.18;;;;;;;;;;5098068;28;20042;-57
2024/01/17 03:38:55;;;;;;;319.73;27.33;;;;;;;;;;5101095;28;20026;-61
2024/01/17 03:41:22;;;;;;;21.70;7.32;;;;;;;;;;5105171;28;20024;-61
2024/01/17 03:43:49;;;;;;;25.05;7.13;;;;;;;;;;5104857;28;20024;-60
2024/01/17 03:46:15;;;;;;;12.70;6.93;;;;;;;;;;5105270;28;20168;-59
2024/01/17 03:48:42;;;;;;;9.85;6.22;;;;;;;;;;5104241;28;20046;-60
2024/01/17 03:51:09;;;;;;;11.07;5.85;;;;;;;;;;5103428;28;20023;-61
2024/01/17 03:53:35;;;;;;;10.43;5.30;;;;;;;;;;5104525;28;20047;-60
2024/01/17 03:56:02;;;;;;;10.52;5.78;;;;;;;;;;5104858;28;20026;-62
2024/01/17 03:58:28;;;;;;;7.35;5.30;;;;;;;;;;5104352;28;20028;-60
2024/01/17 04:00:56;;;;;;;10.95;6.22;;;;;;;;;;5104471;28;20044;-56
2024/01/17 04:03:23;;;;;;;12.05;5.45;;;;;;;;;;5103958;28;20083;-56
2024/01/17 04:05:49;;;;;;;8.38;5.55;;;;;;;;;;5104813;28;20047;-59
2024/01/17 04:08:16;;;;;;;7.50;4.97;;;;;;;;;;5104635;28;20327;-57
2024/01/17 04:10:42;;;;;;;16.17;5.22;;;;;;;;;;5103456;28;20249;-54
2024/01/17 04:13:09;;;;;;;24.42;5.28;;;;;;;;;;5084473;28;20033;-55
2024/01/17 04:15:35;;;;;;;12.77;5.40;;;;;;;;;;5084304;28;20024;-57
2024/01/17 04:18:02;;;;;;;13.88;5.22;;;;;;;;;;5083717;28;20024;-56
2024/01/17 04:20:29;;;;;;;9.05;5.03;;;;;;;;;;5084143;28;20082;-58
2024/01/17 04:22:55;;;;;;;13.85;4.88;;;;;;;;;;5096513;28;20028;-60
2024/01/17 04:25:23;;;;;;;7.70;4.82;;;;;;;;;;5103134;28;20019;-64
2024/01/17 04:27:49;;;;;;;9.20;4.85;;;;;;;;;;5103110;28;20028;-56
2024/01/17 04:30:16;;;;;;;6.03;4.63;;;;;;;;;;5105106;28;20129;-56
2024/01/17 04:32:42;;;;;;;6.13;4.40;;;;;;;;;;5094259;28;20029;-59
2024/01/17 04:35:10;;;;;;;6.97;4.60;;;;;;;;;;5083952;28;20051;-58
2024/01/17 04:37:39;;;;;;;9.10;5.15;;;;;;;;;;5083842;28;20092;-56
2024/01/17 04:40:06;;;;;;;8.43;4.35;;;;;;;;;;5084064;28;20204;-57
2024/01/17 04:42:33;;;;;;;8.98;4.68;;;;;;;;;;5083583;28;20320;-57
2024/01/17 04:45:00;;;;;;;8.50;5.07;;;;;;;;;;5084024;28;20020;-56
2024/01/17 04:47:27;;;;;;;7.05;4.40;;;;;;;;;;5083797;28;20028;-58
2024/01/17 04:49:53;;;;;;;7.40;4.22;;;;;;;;;;5083709;28;20023;-59
2024/01/17 04:52:20;;;;;;;8.30;4.70;;;;;;;;;;5083816;28;20055;-58
2024/01/17 04:54:48;;;;;;;8.25;4.57;;;;;;;;;;5083807;28;20046;-56
2024/01/17 04:57:15;;;;;;;8.18;4.70;;;;;;;;;;5083440;28;20036;-57
2024/01/17 04:59:42;;;;;;;9.43;4.53;;;;;;;;;;5083595;28;20083;-58
2024/01/17 05:02:09;;;;;;;6.55;4.45;;;;;;;;;;5083509;28;20084;-59
2024/01/17 05:04:36;;;;;;;7.35;4.53;;;;;;;;;;5095618;28;20020;-58
2024/01/17 05:07:02;;;;;;;13.80;4.70;;;;;;;;;;5103828;28;20028;-59
2024/01/17 05:09:29;;;;;;;6.85;4.28;;;;;;;;;;5104223;28;20027;-60
2024/01/17 05:11:58;;;;;;;6.85;4.53;;;;;;;;;;5107645;28;20031;-58
2024/01/17 05:14:25;;;;;;;5.60;4.20;;;;;;;;;;5107747;28;20216;-56
2024/01/17 05:16:54;;;;;;;5.55;4.53;;;;;;;;;;5107759;28;20400;-56
2024/01/17 05:19:21;;;;;;;6.55;3.80;;;;;;;;;;5107439;28;20089;-60
2024/01/17 05:21:47;;;;;;;6.95;4.43;;;;;;;;;;5107619;28;20035;-62
2024/01/17 05:24:14;;;;;;;8.77;4.70;;;;;;;;;;5107617;28;20034;-61
2024/01/17 05:26:40;;;;;;;11.77;4.60;;;;;;;;;;5107402;28;20024;-60
2024/01/17 05:29:07;;;;;;;7.53;4.55;;;;;;;;;;5107576;28;20164;-60
2024/01/17 05:31:34;;;;;;;4.57;4.07;;;;;;;;;;5107840;28;20200;-56
2024/01/17 05:34:01;;;;;;;8.57;4.30;;;;;;;;;;5107197;28;20024;-57
2024/01/17 05:36:28;;;;;;;8.48;4.57;;;;;;;;;;5107805;28;20035;-56
2024/01/17 05:38:54;;;;;;;7.85;4.45;;;;;;;;;;5107192;28;20031;-60
2024/01/17 05:41:21;;;;;;;8.20;4.28;;;;;;;;;;5107914;28;20019;-55
2024/01/17 05:43:48;;;;;;;6.43;4.30;;;;;;;;;;5107235;28;20031;-57
2024/01/17 05:46:14;;;;;;;9.13;4.88;;;;;;;;;;5107640;28;20020;-58
2024/01/17 05:48:41;;;;;;;6.05;4.38;;;;;;;;;;5107545;28;20312;-58
2024/01/17 05:51:08;;;;;;;6.03;4.43;;;;;;;;;;5107355;28;20263;-56
2024/01/17 05:53:34;;;;;;;6.38;4.32;;;;;;;;;;5106963;28;20083;-55
2024/01/17 05:56:01;;;;;;;6.00;4.40;;;;;;;;;;5107366;28;20020;-50
2024/01/17 05:58:27;;;;;;;8.23;4.43;;;;;;;;;;5106953;28;20028;-56
2024/01/17 06:00:54;;;;;;;8.20;4.22;;;;;;;;;;5106813;28;20071;-55
2024/01/17 06:03:21;;;;;;;7.45;4.70;;;;;;;;;;5106653;28;20068;-59
2024/01/17 06:05:48;;;;;;;7.88;4.53;;;;;;;;;;5107217;28;20035;-56
2024/01/17 06:08:15;;;;;;;7.88;4.50;;;;;;;;;;5106924;28;20043;-61
2024/01/17 06:10:41;;;;;;;8.23;5.18;;;;;;;;;;5107280;28;20030;-61
2024/01/17 06:13:08;;;;;;;7.07;4.70;;;;;;;;;;5106716;28;20087;-61
2024/01/17 06:15:35;;;;;;;7.65;5.07;;;;;;;;;;5107035;28;20138;-56
2024/01/17 06:18:02;;;;;;;7.07;4.70;;;;;;;;;;5106773;28;20384;-58
2024/01/17 06:20:28;;;;;;;9.43;5.00;;;;;;;;;;5107111;28;20047;-60
2024/01/17 06:22:55;;;;;;;8.57;5.57;;;;;;;;;;5106506;28;20020;-56
2024/01/17 06:25:21;;;;;;;9.65;4.82;;;;;;;;;;5106636;28;20081;-61
2024/01/17 06:27:48;;;;;;;7.22;4.95;;;;;;;;;;5106671;28;20250;-60
2024/01/17 06:30:15;;;;;;;8.02;4.82;;;;;;;;;;5106708;28;20020;-57
2024/01/17 06:32:41;;;;;;;8.90;5.10;;;;;;;;;;5106450;28;20028;-61
2024/01/17 06:35:10;;;;;;;7.45;5.47;;;;;;;;;;5106234;28;20020;-61
2024/01/17 06:37:37;;;;;;;7.35;4.97;;;;;;;;;;5106098;28;20024;-60
2024/01/17 06:40:04;;;;;;;9.95;5.05;;;;;;;;;;5106293;28;20027;-59
2024/01/17 06:42:30;;;;;;;6.07;4.72;;;;;;;;;;5106120;28;20054;-57
2024/01/17 06:44:57;;;;;;;8.02;4.80;;;;;;;;;;5106077;28;20023;-58
2024/01/17 06:47:24;;;;;;;7.63;4.75;;;;;;;;;;5105869;28;20020;-58
2024/01/17 06:49:50;;;;;;;7.55;4.63;;;;;;;;;;5105799;28;20024;-57
2024/01/17 06:52:17;;;;;;;6.35;4.70;;;;;;;;;;5105933;28;20339;-63
2024/01/17 06:54:43;;;;;;;6.20;4.85;;;;;;;;;;5106037;28;20203;-64
2024/01/17 06:57:10;;;;;;;7.22;5.47;;;;;;;;;;5105630;28;20205;-58
2024/01/17 06:59:36;;;;;;;6.18;4.78;;;;;;;;;;5105566;28;20050;-61
2024/01/17 07:02:03;;;;;;;8.57;4.70;;;;;;;;;;5105638;28;20028;-58
2024/01/17 07:04:30;;;;;;;8.02;5.03;;;;;;;;;;5105524;28;20022;-60
2024/01/17 07:06:56;;;;;;;7.90;4.80;;;;;;;;;;5105624;28;20027;-61
2024/01/17 07:09:23;;;;;;;6.43;4.78;;;;;;;;;;5105585;28;20058;-60
2024/01/17 07:11:49;;;;;;;8.82;5.18;;;;;;;;;;5105369;28;20251;-59
2024/01/17 07:14:16;;;;;;;7.18;4.85;;;;;;;;;;5105630;28;20015;-60
2024/01/17 07:16:43;;;;;;;11.52;4.82;;;;;;;;;;5105439;28;20019;-60
2024/01/17 07:19:09;;;;;;;8.02;5.00;;;;;;;;;;5105304;28;20023;-60
2024/01/17 07:21:40;;;;;;;6.60;4.63;;;;;;;;;;5105413;28;20027;-62
2024/01/17 07:24:06;;;;;;;7.32;5.00;;;;;;;;;;5105213;28;20034;-62
2024/01/17 07:26:33;;;;;;;8.73;5.20;;;;;;;;;;5104948;28;20018;-59
2024/01/17 07:29:00;;;;;;;8.93;5.10;;;;;;;;;;5105229;28;20062;-60
2024/01/17 07:31:27;;;;;;;7.00;5.10;;;;;;;;;;5105608;28;20326;-61
2024/01/17 07:33:53;;;;;;;5.65;4.60;;;;;;;;;;5104590;28;20032;-62
2024/01/17 07:36:20;;;;;;;7.47;4.88;;;;;;;;;;5105444;28;20079;-58
2024/01/17 07:38:47;;;;;;;23.67;6.05;;;;;;;;;;5104915;28;20043;-61
2024/01/17 07:41:13;;;;;;;9.00;5.35;;;;;;;;;;5105232;28;20196;-57
2024/01/17 07:43:40;;;;;;;6.88;4.57;;;;;;;;;;5105088;28;20032;-57
2024/01/17 07:46:06;;;;;;;15.25;5.65;;;;;;;;;;5105313;28;20024;-60
2024/01/17 07:48:33;;;;;;;19.67;5.50;;;;;;;;;;5105027;28;20016;-58
2024/01/17 07:51:00;;;;;;;14.57;5.55;;;;;;;;;;5105227;28;20024;-60
2024/01/17 07:53:27;;;;;;;10.35;4.93;;;;;;;;;;5104787;28;20031;-60
2024/01/17 07:55:54;;;;;;;7.53;4.80;;;;;;;;;;5105135;28;20023;-62
2024/01/17 07:58:21;;;;;;;11.80;5.30;;;;;;;;;;5104526;28;20024;-59
2024/01/17 08:00:48;;;;;;;5.60;4.60;;;;;;;;;;5104423;28;20103;-59
2024/01/17 08:03:15;;;;;;;11.23;5.32;;;;;;;;;;5104427;28;20032;-61
2024/01/17 08:05:42;;;;;;;13.13;5.35;;;;;;;;;;5104666;28;20027;-61
2024/01/17 08:08:09;;;;;;;11.35;5.30;;;;;;;;;;5104610;28;20307;-62
2024/01/17 08:10:37;;;;;;;8.18;4.88;;;;;;;;;;5104766;28;20253;-55
2024/01/17 08:13:07;;;;;;;8.95;4.72;;;;;;;;;;5104693;28;20335;-60
2024/01/17 08:15:34;;;;;;;8.45;4.70;;;;;;;;;;5104737;28;20028;-61
2024/01/17 08:18:01;;;;;;;7.40;4.60;;;;;;;;;;5104309;28;20251;-60
2024/01/17 08:20:27;;;;;;;6.80;4.65;;;;;;;;;;5104489;28;20020;-59
2024/01/17 08:22:54;;;;;;;6.70;4.47;;;;;;;;;;5104337;28;20083;-62
2024/01/17 08:25:21;;;;;;;7.85;4.65;;;;;;;;;;5104484;28;20023;-59
2024/01/17 08:27:47;;;;;;;5.97;4.60;;;;;;;;;;5104121;28;20040;-60
2024/01/17 08:30:14;;;;;;;8.07;4.40;;;;;;;;;;5104439;28;20053;-61
2024/01/17 08:32:40;;;;;;;7.38;4.65;;;;;;;;;;5104109;28;20031;-61
2024/01/17 08:35:07;;;;;;;7.85;4.72;;;;;;;;;;5104301;28;20024;-58
2024/01/17 08:37:35;;;;;;;6.03;4.80;;;;;;;;;;5104234;28;20023;-58
2024/01/17 08:40:03;;;;;;;11.88;4.90;;;;;;;;;;5104254;28;20023;-59
2024/01/17 08:42:29;;;;;;;7.15;4.72;;;;;;;;;;5103838;28;20228;-58
2024/01/17 08:44:56;;;;;;;10.73;5.15;;;;;;;;;;5105964;28;20236;-58
2024/01/17 08:47:22;;;;;;;9.60;5.45;;;;;;;;;;5108398;28;20092;-61
2024/01/17 08:49:51;;;;;;;13.57;5.43;;;;;;;;;;5108110;28;20024;-60
2024/01/17 08:52:17;;;;;;;7.25;5.07;;;;;;;;;;5108437;28;20059;-61
2024/01/17 08:54:44;;;;;;;8.02;5.28;;;;;;;;;;5107009;28;20024;-61
2024/01/17 08:57:11;;;;;;;6.50;4.70;;;;;;;;;;5108068;28;20055;-60
2024/01/17 08:59:38;;;;;;;6.78;5.05;;;;;;;;;;5107862;28;20024;-61
2024/01/17 09:02:04;;;;;;;6.40;5.15;;;;;;;;;;5107932;28;20020;-63
2024/01/17 09:04:32;;;;;;;7.93;5.18;;;;;;;;;;5107854;28;20317;-60
2024/01/17 09:06:58;;;;;;;6.80;4.72;;;;;;;;;;5108111;28;20032;-56
2024/01/17 09:09:25;;;;;;;6.53;4.78;;;;;;;;;;5108094;28;20038;-56
2024/01/17 09:11:55;;;;;;;5.82;4.90;;;;;;;;;;5107791;28;20253;-55
2024/01/17 09:14:24;;;;;;;6.45;4.72;;;;;;;;;;5107794;28;20016;-60
2024/01/17 09:16:55;;;;;;;6.35;5.10;;;;;;;;;;5108035;28;20020;-60
2024/01/17 09:19:22;;;;;;;7.05;4.90;;;;;;;;;;5107534;28;20024;-61
2024/01/17 09:21:49;;;;;;;10.75;5.10;;;;;;;;;;5107665;28;20020;-60
2024/01/17 09:24:15;;;;;;;6.97;4.90;;;;;;;;;;5107569;28;20069;-60
2024/01/17 09:26:42;;;;;;;7.70;4.88;;;;;;;;;;5107534;28;20020;-60
2024/01/17 09:29:09;;;;;;;8.32;4.63;;;;;;;;;;5107652;28;20015;-59
2024/01/17 09:31:36;;;;;;;11.52;5.47;;;;;;;;;;5107488;28;20043;-60
2024/01/17 09:34:04;;;;;;;17.08;5.10;;;;;;;;;;5107255;28;20024;-57
2024/01/17 09:36:31;;;;;;;12.55;5.32;;;;;;;;;;5107863;28;20031;-61
2024/01/17 09:38:57;;;;;;;14.98;5.75;;;;;;;;;;5107369;28;20220;-59
2024/01/17 09:41:24;;;;;;;15.50;5.35;;;;;;;;;;5107581;28;20043;-59
2024/01/17 09:43:51;;;;;;;11.55;5.35;;;;;;;;;;5107352;28;20031;-61
2024/01/17 09:46:18;;;;;;;9.45;4.80;;;;;;;;;;5107556;28;20039;-61
2024/01/17 09:48:45;;;;;;;11.77;5.03;;;;;;;;;;5106939;28;20020;-60
2024/01/17 09:51:16;;;;;;;24.42;5.72;;;;;;;;;;5107474;28;20024;-61
2024/01/17 09:53:46;;;;;;;19.27;5.35;;;;;;;;;;5107054;28;20042;-60
2024/01/17 09:56:14;;;;;;;20.98;5.55;;;;;;;;;;5106852;28;20028;-59
2024/01/17 09:58:44;;;;;;;15.48;5.35;;;;;;;;;;5106919;28;20250;-61
2024/01/17 10:01:14;;;;;;;17.52;4.72;;;;;;;;;;5106705;28;20260;-59
2024/01/17 10:03:42;;;;;;;11.13;4.95;;;;;;;;;;5106723;28;20220;-59
2024/01/17 10:06:09;;;;;;;16.77;5.03;;;;;;;;;;5107258;28;20027;-60
2024/01/17 10:08:36;;;;;;;9.98;5.28;;;;;;;;;;5106647;28;20216;-59
2024/01/17 10:11:03;;;;;;;13.93;5.30;;;;;;;;;;5107002;28;20024;-61
2024/01/17 10:13:30;;;;;;;14.07;4.85;;;;;;;;;;5106861;28;20077;-61
2024/01/17 10:16:01;;;;;;;14.68;5.15;;;;;;;;;;5123569;28;20047;-58
2024/01/17 10:18:28;;;;;;;10.13;4.97;;;;;;;;;;5126914;28;20031;-60
2024/01/17 10:20:55;;;;;;;12.85;5.60;;;;;;;;;;5127312;28;20024;-60
2024/01/17 10:23:21;;;;;;;14.80;5.53;;;;;;;;;;5126729;28;20254;-59
2024/01/17 10:25:48;;;;;;;9.13;5.22;;;;;;;;;;5127125;28;20024;-60
2024/01/17 10:28:15;;;;;;;8.20;4.80;;;;;;;;;;5126877;28;20016;-60
2024/01/17 10:30:42;;;;;;;17.20;5.57;;;;;;;;;;5126929;28;20196;-60
2024/01/17 10:33:08;;;;;;;17.60;5.18;;;;;;;;;;5126778;28;20039;-60
2024/01/17 10:35:35;;;;;;;17.08;6.30;;;;;;;;;;5127077;28;20328;-60
2024/01/17 10:38:03;;;;;;;14.00;5.40;;;;;;;;;;5126650;28;20057;-60
2024/01/17 10:40:30;;;;;;;14.95;5.72;;;;;;;;;;5126844;28;20015;-60
2024/01/17 10:43:13;;;;;;;19.75;6.03;;;;;;;;;;5126363;28;20028;-60
2024/01/17 10:45:42;;;;;;;16.05;5.75;;;;;;;;;;5126584;28;20024;-61
2024/01/17 10:48:09;;;;;;;16.70;6.10;;;;;;;;;;5126437;28;20022;-61
2024/01/17 10:50:35;;;;;;;15.68;6.03;;;;;;;;;;5126604;28;20278;-58
2024/01/17 10:53:04;;;;;;;14.43;5.57;;;;;;;;;;5126108;28;20031;-61
2024/01/17 10:55:34;;;;;;;17.38;5.38;;;;;;;;;;5126453;28;20046;-59
2024/01/17 10:58:04;;;;;;;23.88;6.40;;;;;;;;;;5126180;28;20223;-59
2024/01/17 11:00:32;;;;;;;21.50;5.78;;;;;;;;;;5124716;28;20259;-58
2024/01/17 11:02:59;;;;;;;20.45;5.63;;;;;;;;;;5085325;28;20221;-60
2024/01/17 11:05:34;;;;;;;19.48;5.25;;;;;;;;;;5085455;28;20235;-60
2024/01/17 11:08:01;;;;;;;14.43;4.80;;;;;;;;;;5084609;28;20024;-60
2024/01/17 11:10:28;;;;;;;30.70;6.10;;;;;;;;;;5085476;28;20044;-60
2024/01/17 11:12:56;;;;;;;16.58;4.93;;;;;;;;;;5085167;28;20031;-60
2024/01/17 11:15:23;;;;;;;14.35;5.10;;;;;;;;;;5085356;28;20020;-58
2024/01/17 11:17:51;;;;;;;26.55;7.10;;;;;;;;;;5085236;28;20075;-60
2024/01/17 11:20:17;;;;;;;24.80;6.38;;;;;;;;;;5085094;28;20092;-59
2024/01/17 11:22:48;;;;;;;52.10;8.05;;;;;;;;;;5103089;28;20055;-60
2024/01/17 11:25:16;;;;;;;25.65;7.22;;;;;;;;;;5105224;28;20324;-60
2024/01/17 11:27:42;;;;;;;32.72;7.95;;;;;;;;;;5105060;28;20028;-62
2024/01/17 11:30:22;;;;;;;87.20;9.38;;;;;;;;;;5105479;28;20061;-60
2024/01/17 11:32:58;;;;;;;81.32;11.52;;;;;;;;;;5105235;28;20362;-62
2024/01/17 11:35:43;;;;;;;39.53;8.43;;;;;;;;;;5105036;28;20065;-61
2024/01/17 11:38:25;;;;;;;38.08;9.10;;;;;;;;;;5087776;28;20019;-58
2024/01/17 11:40:52;;;;;;;45.50;10.40;;;;;;;;;;5085367;28;20028;-60
2024/01/17 11:43:18;;;;;;;38.35;10.20;;;;;;;;;;5084462;28;20064;-59
2024/01/17 11:45:45;;;;;;;34.40;8.50;;;;;;;;;;5093198;28;20308;-58
2024/01/17 11:48:12;;;;;;;26.33;7.68;;;;;;;;;;5105003;28;20064;-64
2024/01/17 11:50:39;;;;;;;24.45;6.88;;;;;;;;;;5105044;28;20024;-60
2024/01/17 11:53:06;;;;;;;23.52;6.65;;;;;;;;;;5104948;28;20036;-60
2024/01/17 11:55:32;;;;;;;22.77;6.40;;;;;;;;;;5104943;28;20035;-58
2024/01/17 11:58:02;;;;;;;26.02;6.40;;;;;;;;;;5105019;28;20027;-60
2024/01/17 12:00:28;;;;;;;26.00;6.75;;;;;;;;;;5104590;28;20071;-60
2024/01/17 12:02:59;;;;;;;22.40;6.43;;;;;;;;;;5104542;28;20028;-58
2024/01/17 12:05:29;;;;;;;30.67;5.93;;;;;;;;;;5104762;28;20020;-60
2024/01/17 12:07:58;;;;;;;22.75;5.57;;;;;;;;;;5104738;28;20050;-57
2024/01/17 12:10:25;;;;;;;24.88;5.70;;;;;;;;;;5104884;28;20045;-61
2024/01/17 12:12:51;;;;;;;30.50;5.90;;;;;;;;;;5104489;28;20020;-61
2024/01/17 12:15:19;;;;;;;27.17;5.20;;;;;;;;;;5104620;28;20235;-62
2024/01/17 12:17:45;;;;;;;16.88;5.68;;;;;;;;;;5104543;28;20016;-59
2024/01/17 12:20:12;;;;;;;27.95;5.47;;;;;;;;;;5104301;28;20023;-58
2024/01/17 12:22:39;;;;;;;20.15;5.60;;;;;;;;;;5104367;28;20113;-55
2024/01/17 12:25:05;;;;;;;26.23;5.57;;;;;;;;;;5104501;28;20020;-56
2024/01/17 12:27:33;;;;;;;15.77;4.70;;;;;;;;;;5104158;28;20023;-61
2024/01/17 12:30:04;;;;;;;29.05;6.03;;;;;;;;;;5104449;28;20245;-63
2024/01/17 12:32:31;;;;;;;36.63;5.83;;;;;;;;;;5085348;28;20028;-60
2024/01/17 12:34:58;;;;;;;28.45;6.07;;;;;;;;;;5084143;28;20021;-59
2024/01/17 12:37:25;;;;;;;26.05;5.18;;;;;;;;;;5083969;28;20088;-61
2024/01/17 12:39:52;;;;;;;21.70;5.20;;;;;;;;;;5084284;28;20332;-62
2024/01/17 12:42:19;;;;;;;18.05;4.80;;;;;;;;;;5083877;28;20028;-61
2024/01/17 12:44:45;;;;;;;23.15;5.05;;;;;;;;;;5084226;28;20032;-58
2024/01/17 12:47:13;;;;;;;16.42;4.53;;;;;;;;;;5083930;28;20031;-63
2024/01/17 12:49:39;;;;;;;28.20;5.13;;;;;;;;;;5083568;28;20021;-61
2024/01/17 12:52:06;;;;;;;18.75;4.70;;;;;;;;;;5083896;28;20340;-61
2024/01/17 12:54:33;;;;;;;37.10;5.30;;;;;;;;;;5084192;28;20243;-59
2024/01/17 12:56:59;;;;;;;24.35;4.45;;;;;;;;;;5084050;28;20035;-61
2024/01/17 12:59:26;;;;;;;44.17;5.40;;;;;;;;;;5083744;28;20251;-61
2024/01/17 13:01:59;;;;;;;25.55;5.28;;;;;;;;;;5083850;28;20095;-59
2024/01/17 13:04:25;;;;;;;28.48;5.38;;;;;;;;;;5083708;28;20052;-58
2024/01/17 13:06:57;;;;;;;27.30;5.43;;;;;;;;;;5083948;28;20021;-58
2024/01/17 13:09:24;;;;;;;44.53;6.53;;;;;;;;;;5083870;28;20017;-57
2024/01/17 13:11:51;;;;;;;30.83;5.93;;;;;;;;;;5083793;28;20065;-62
2024/01/17 13:14:18;;;;;;;39.60;6.13;;;;;;;;;;5084004;28;20082;-60
2024/01/17 13:16:45;;;;;;;33.33;5.78;;;;;;;;;;5083928;28;20224;-62
2024/01/17 13:19:13;;;;;;;40.92;5.47;;;;;;;;;;5083450;28;20019;-60
2024/01/17 13:21:43;;;;;;;41.15;6.18;;;;;;;;;;5083859;28;20046;-63
2024/01/17 13:24:11;;;;;;;33.38;6.25;;;;;;;;;;5088108;28;20030;-65
2024/01/17 13:26:41;;;;;;;29.98;5.60;;;;;;;;;;5103534;28;20020;-58
2024/01/17 13:29:08;;;;;;;29.17;5.43;;;;;;;;;;5103728;28;20079;-59
2024/01/17 13:31:35;;;;;;;17.30;4.68;;;;;;;;;;5106630;28;20016;-58
2024/01/17 13:34:05;;;;;;;17.98;4.95;;;;;;;;;;5107533;28;20067;-60
2024/01/17 13:36:32;;;;;;;16.02;4.88;;;;;;;;;;5108019;28;20023;-61
2024/01/17 13:38:59;;;;;;;11.73;4.38;;;;;;;;;;5105972;28;20024;-60
2024/01/17 13:41:26;;;;;;;18.73;4.15;;;;;;;;;;5088231;28;20094;-62
2024/01/17 13:43:56;;;;;;;29.80;5.22;;;;;;;;;;5093577;28;20024;-58
2024/01/17 13:46:26;;;;;;;19.65;4.47;;;;;;;;;;5107587;28;20043;-58
2024/01/17 13:48:54;;;;;;;31.40;5.40;;;;;;;;;;5107252;28;20036;-61
2024/01/17 13:51:22;;;;;;;15.30;4.53;;;;;;;;;;5107665;28;20020;-58
2024/01/17 13:53:53;;;;;;;29.20;4.30;;;;;;;;;;5107063;28;20084;-62
2024/01/17 13:56:19;;;;;;;18.58;4.63;;;;;;;;;;5103025;28;20038;-59
2024/01/17 13:58:46;;;;;;;17.80;4.70;;;;;;;;;;5106307;28;20052;-60
2024/01/17 14:01:18;;;;;;;10.52;4.45;;;;;;;;;;5106697;28;20052;-55
2024/01/17 14:03:44;;;;;;;8.45;3.65;;;;;;;;;;5103764;28;20208;-59
2024/01/17 14:06:11;;;;;;;7.53;3.78;;;;;;;;;;5107411;28;20079;-63
2024/01/17 14:08:37;;;;;;;11.75;4.10;;;;;;;;;;5106917;28;20044;-56
2024/01/17 14:11:04;;;;;;;15.13;4.20;;;;;;;;;;5106925;28;20300;-60
2024/01/17 14:13:31;;;;;;;51.60;6.78;;;;;;;;;;5106770;28;20031;-59
2024/01/17 14:15:58;;;;;;;57.30;7.10;;;;;;;;;;5107009;28;20087;-60
2024/01/17 14:18:25;;;;;;;48.92;7.10;;;;;;;;;;5106969;28;20027;-58
2024/01/17 14:20:51;;;;;;;38.85;6.82;;;;;;;;;;5107081;28;20020;-59
2024/01/17 14:23:18;;;;;;;29.45;5.88;;;;;;;;;;5087091;28;20030;-58
2024/01/17 14:25:45;;;;;;;27.58;5.80;;;;;;;;;;5104338;28;20028;-57
2024/01/17 14:28:11;;;;;;;34.78;5.80;;;;;;;;;;5106495;28;20020;-56
2024/01/17 14:30:39;;;;;;;26.05;4.90;;;;;;;;;;5107044;28;20056;-53
2024/01/17 14:33:05;;;;;;;14.68;4.60;;;;;;;;;;5105442;28;20040;-60